sensor_id;sensor_type;location;lat;lon;timestamp;P1;durP1;ratioP1;P2;durP2;ratioP2
55190;SDS011;41070;50.360;18.742;2023-02-12T00:00:08;23.10;;;10.60;;
55190;SDS011;41070;50.360;18.742;2023-02-12T00:03:08;18.90;;;9.60;;
55190;SDS011;41070;50.360;18.742;2023-02-12T00:05:47;25.30;;;11.00;;
55190;SDS011;41070;50.360;18.742;2023-02-12T00:08:14;27.80;;;11.70;;
55190;SDS011;41070;50.360;18.742;2023-02-12T00:10:49;24.80;;;10.30;;
55190;SDS011;41070;50.360;18.742;2023-02-12T00:13:16;27.30;;;13.80;;
55190;SDS011;41070;50.360;18.742;2023-02-12T00:15:45;17.50;;;10.20;;
55190;SDS011;41070;50.360;18.742;2023-02-12T00:18:42;22.00;;;9.90;;
55190;SDS011;41070;50.360;18.742;2023-02-12T00:21:16;28.50;;;13.50;;
55190;SDS011;41070;50.360;18.742;2023-02-12T00:23:42;37.70;;;13.00;;
55190;SDS011;41070;50.360;18.742;2023-02-12T00:27:09;27.40;;;12.50;;
55190;SDS011;41070;50.360;18.742;2023-02-12T00:30:26;19.90;;;10.60;;
55190;SDS011;41070;50.360;18.742;2023-02-12T00:33:14;17.60;;;9.90;;
55190;SDS011;41070;50.360;18.742;2023-02-12T00:36:15;22.20;;;10.60;;
55190;SDS011;41070;50.360;18.742;2023-02-12T00:39:24;20.30;;;9.80;;
55190;SDS011;41070;50.360;18.742;2023-02-12T00:41:52;20.10;;;10.50;;
55190;SDS011;41070;50.360;18.742;2023-02-12T00:44:23;15.90;;;10.30;;
55190;SDS011;41070;50.360;18.742;2023-02-12T00:46:50;19.80;;;10.80;;
55190;SDS011;41070;50.360;18.742;2023-02-12T00:49:51;23.70;;;13.50;;
55190;SDS011;41070;50.360;18.742;2023-02-12T00:52:37;20.10;;;11.60;;
55190;SDS011;41070;50.360;18.742;2023-02-12T00:55:13;23.30;;;12.90;;
55190;SDS011;41070;50.360;18.742;2023-02-12T00:58:02;18.30;;;10.70;;
55190;SDS011;41070;50.360;18.742;2023-02-12T01:00:52;19.70;;;11.90;;
55190;SDS011;41070;50.360;18.742;2023-02-12T01:04:07;23.80;;;12.90;;
55190;SDS011;41070;50.360;18.742;2023-02-12T01:07:41;18.10;;;11.00;;
55190;SDS011;41070;50.360;18.742;2023-02-12T01:10:37;21.10;;;11.90;;
55190;SDS011;41070;50.360;18.742;2023-02-12T01:13:40;20.30;;;11.10;;
55190;SDS011;41070;50.360;18.742;2023-02-12T01:16:15;20.30;;;11.40;;
55190;SDS011;41070;50.360;18.742;2023-02-12T01:19:02;22.20;;;12.80;;
55190;SDS011;41070;50.360;18.742;2023-02-12T01:22:17;22.70;;;11.60;;
55190;SDS011;41070;50.360;18.742;2023-02-12T01:25:18;25.30;;;13.70;;
55190;SDS011;41070;50.360;18.742;2023-02-12T01:27:46;26.80;;;14.70;;
55190;SDS011;41070;50.360;18.742;2023-02-12T01:30:34;31.60;;;15.70;;
55190;SDS011;41070;50.360;18.742;2023-02-12T01:33:00;29.60;;;15.20;;
55190;SDS011;41070;50.360;18.742;2023-02-12T01:39:49;30.40;;;14.50;;
55190;SDS011;41070;50.360;18.742;2023-02-12T01:42:16;29.70;;;15.10;;
55190;SDS011;41070;50.360;18.742;2023-02-12T01:47:44;25.50;;;12.90;;
55190;SDS011;41070;50.360;18.742;2023-02-12T01:50:32;27.60;;;14.30;;
55190;SDS011;41070;50.360;18.742;2023-02-12T01:53:00;20.60;;;10.90;;
55190;SDS011;41070;50.360;18.742;2023-02-12T01:55:28;31.90;;;18.00;;
55190;SDS011;41070;50.360;18.742;2023-02-12T01:58:03;26.40;;;12.80;;
55190;SDS011;41070;50.360;18.742;2023-02-12T02:00:34;27.10;;;14.60;;
55190;SDS011;41070;50.360;18.742;2023-02-12T02:03:46;26.60;;;14.90;;
55190;SDS011;41070;50.360;18.742;2023-02-12T02:06:19;27.60;;;14.80;;
55190;SDS011;41070;50.360;18.742;2023-02-12T02:08:57;24.10;;;11.70;;
55190;SDS011;41070;50.360;18.742;2023-02-12T02:11:24;26.50;;;11.70;;
55190;SDS011;41070;50.360;18.742;2023-02-12T02:14:14;27.90;;;12.20;;
55190;SDS011;41070;50.360;18.742;2023-02-12T02:17:32;21.60;;;10.70;;
55190;SDS011;41070;50.360;18.742;2023-02-12T02:33:44;26.20;;;11.70;;
55190;SDS011;41070;50.360;18.742;2023-02-12T02:40:21;18.00;;;9.50;;
55190;SDS011;41070;50.360;18.742;2023-02-12T02:43:47;24.20;;;13.40;;
55190;SDS011;41070;50.360;18.742;2023-02-12T02:49:29;27.70;;;14.30;;
55190;SDS011;41070;50.360;18.742;2023-02-12T02:52:28;18.10;;;10.10;;
55190;SDS011;41070;50.360;18.742;2023-02-12T02:58:11;24.40;;;12.10;;
55190;SDS011;41070;50.360;18.742;2023-02-12T03:04:30;23.20;;;12.00;;
55190;SDS011;41070;50.360;18.742;2023-02-12T03:07:26;23.80;;;12.40;;
55190;SDS011;41070;50.360;18.742;2023-02-12T03:10:16;20.30;;;10.30;;
55190;SDS011;41070;50.360;18.742;2023-02-12T03:12:50;17.80;;;10.50;;
55190;SDS011;41070;50.360;18.742;2023-02-12T03:18:00;15.40;;;9.70;;
55190;SDS011;41070;50.360;18.742;2023-02-12T03:20:54;19.60;;;9.80;;
55190;SDS011;41070;50.360;18.742;2023-02-12T03:26:37;27.50;;;12.90;;
55190;SDS011;41070;50.360;18.742;2023-02-12T03:29:25;41.50;;;17.10;;
55190;SDS011;41070;50.360;18.742;2023-02-12T03:35:31;31.10;;;14.10;;
55190;SDS011;41070;50.360;18.742;2023-02-12T03:41:01;17.80;;;9.40;;
55190;SDS011;41070;50.360;18.742;2023-02-12T03:43:53;15.70;;;8.60;;
55190;SDS011;41070;50.360;18.742;2023-02-12T03:46:50;18.80;;;9.50;;
55190;SDS011;41070;50.360;18.742;2023-02-12T03:52:29;16.00;;;8.30;;
55190;SDS011;41070;50.360;18.742;2023-02-12T03:54:59;14.90;;;8.00;;
55190;SDS011;41070;50.360;18.742;2023-02-12T03:57:51;19.30;;;9.50;;
55190;SDS011;41070;50.360;18.742;2023-02-12T04:01:11;14.50;;;7.90;;
55190;SDS011;41070;50.360;18.742;2023-02-12T04:03:40;18.60;;;10.00;;
55190;SDS011;41070;50.360;18.742;2023-02-12T04:06:27;16.30;;;10.70;;
55190;SDS011;41070;50.360;18.742;2023-02-12T04:09:32;17.40;;;9.00;;
55190;SDS011;41070;50.360;18.742;2023-02-12T04:12:03;17.80;;;8.90;;
55190;SDS011;41070;50.360;18.742;2023-02-12T04:17:51;17.80;;;9.80;;
55190;SDS011;41070;50.360;18.742;2023-02-12T04:20:41;30.80;;;13.30;;
55190;SDS011;41070;50.360;18.742;2023-02-12T04:28:42;24.50;;;13.50;;
55190;SDS011;41070;50.360;18.742;2023-02-12T04:37:24;47.10;;;24.70;;
55190;SDS011;41070;50.360;18.742;2023-02-12T04:39:56;46.80;;;19.50;;
55190;SDS011;41070;50.360;18.742;2023-02-12T04:42:27;242.20;;;68.90;;
55190;SDS011;41070;50.360;18.742;2023-02-12T04:44:53;151.60;;;40.40;;
55190;SDS011;41070;50.360;18.742;2023-02-12T04:49:52;109.80;;;30.30;;
55190;SDS011;41070;50.360;18.742;2023-02-12T04:52:22;144.10;;;38.90;;
55190;SDS011;41070;50.360;18.742;2023-02-12T04:54:51;113.20;;;33.30;;
55190;SDS011;41070;50.360;18.742;2023-02-12T04:59:48;94.10;;;28.00;;
55190;SDS011;41070;50.360;18.742;2023-02-12T05:02:17;61.50;;;19.50;;
55190;SDS011;41070;50.360;18.742;2023-02-12T05:05:05;65.10;;;20.50;;
55190;SDS011;41070;50.360;18.742;2023-02-12T05:07:35;93.10;;;26.20;;
55190;SDS011;41070;50.360;18.742;2023-02-12T05:10:02;42.40;;;15.40;;
55190;SDS011;41070;50.360;18.742;2023-02-12T05:12:29;83.30;;;25.90;;
55190;SDS011;41070;50.360;18.742;2023-02-12T05:14:57;158.60;;;50.10;;
55190;SDS011;41070;50.360;18.742;2023-02-12T05:17:31;229.80;;;69.10;;
55190;SDS011;41070;50.360;18.742;2023-02-12T05:19:58;214.60;;;54.90;;
55190;SDS011;41070;50.360;18.742;2023-02-12T05:22:24;343.60;;;72.50;;
55190;SDS011;41070;50.360;18.742;2023-02-12T05:25:09;277.20;;;57.90;;
55190;SDS011;41070;50.360;18.742;2023-02-12T05:27:36;206.10;;;45.10;;
55190;SDS011;41070;50.360;18.742;2023-02-12T05:30:06;153.50;;;33.80;;
55190;SDS011;41070;50.360;18.742;2023-02-12T05:32:34;131.00;;;30.70;;
55190;SDS011;41070;50.360;18.742;2023-02-12T05:35:14;163.10;;;38.90;;
55190;SDS011;41070;50.360;18.742;2023-02-12T05:37:44;139.60;;;33.10;;
55190;SDS011;41070;50.360;18.742;2023-02-12T05:40:11;134.80;;;31.30;;
55190;SDS011;41070;50.360;18.742;2023-02-12T05:42:45;121.30;;;30.30;;
55190;SDS011;41070;50.360;18.742;2023-02-12T05:48:21;62.10;;;19.50;;
55190;SDS011;41070;50.360;18.742;2023-02-12T05:50:48;35.10;;;12.80;;
55190;SDS011;41070;50.360;18.742;2023-02-12T05:53:19;79.50;;;21.10;;
55190;SDS011;41070;50.360;18.742;2023-02-12T05:55:50;45.00;;;16.60;;
55190;SDS011;41070;50.360;18.742;2023-02-12T06:05:29;24.90;;;12.50;;
55190;SDS011;41070;50.360;18.742;2023-02-12T06:07:56;25.10;;;11.30;;
55190;SDS011;41070;50.360;18.742;2023-02-12T06:10:26;23.90;;;15.00;;
55190;SDS011;41070;50.360;18.742;2023-02-12T06:12:53;54.00;;;23.60;;
55190;SDS011;41070;50.360;18.742;2023-02-12T06:15:20;40.80;;;15.10;;
55190;SDS011;41070;50.360;18.742;2023-02-12T06:17:47;23.50;;;11.60;;
55190;SDS011;41070;50.360;18.742;2023-02-12T06:20:13;35.50;;;16.00;;
55190;SDS011;41070;50.360;18.742;2023-02-12T06:22:42;39.90;;;19.50;;
55190;SDS011;41070;50.360;18.742;2023-02-12T06:25:09;48.80;;;24.20;;
55190;SDS011;41070;50.360;18.742;2023-02-12T06:27:40;72.50;;;38.50;;
55190;SDS011;41070;50.360;18.742;2023-02-12T06:30:08;54.80;;;30.90;;
55190;SDS011;41070;50.360;18.742;2023-02-12T06:32:35;67.30;;;35.40;;
55190;SDS011;41070;50.360;18.742;2023-02-12T06:35:08;50.20;;;28.30;;
55190;SDS011;41070;50.360;18.742;2023-02-12T06:37:34;34.00;;;20.00;;
55190;SDS011;41070;50.360;18.742;2023-02-12T06:40:02;24.70;;;14.40;;
55190;SDS011;41070;50.360;18.742;2023-02-12T06:42:29;18.60;;;11.10;;
55190;SDS011;41070;50.360;18.742;2023-02-12T06:44:56;15.70;;;10.40;;
55190;SDS011;41070;50.360;18.742;2023-02-12T06:47:23;18.30;;;10.80;;
55190;SDS011;41070;50.360;18.742;2023-02-12T06:49:53;32.20;;;16.00;;
55190;SDS011;41070;50.360;18.742;2023-02-12T06:52:21;32.80;;;16.80;;
55190;SDS011;41070;50.360;18.742;2023-02-12T06:54:51;17.40;;;9.50;;
55190;SDS011;41070;50.360;18.742;2023-02-12T06:57:23;15.80;;;9.60;;
55190;SDS011;41070;50.360;18.742;2023-02-12T06:59:51;19.80;;;10.30;;
55190;SDS011;41070;50.360;18.742;2023-02-12T07:02:17;21.60;;;12.40;;
55190;SDS011;41070;50.360;18.742;2023-02-12T07:04:44;19.50;;;12.20;;
55190;SDS011;41070;50.360;18.742;2023-02-12T07:07:11;20.90;;;10.50;;
55190;SDS011;41070;50.360;18.742;2023-02-12T07:09:38;20.10;;;11.80;;
55190;SDS011;41070;50.360;18.742;2023-02-12T07:12:07;19.80;;;11.10;;
55190;SDS011;41070;50.360;18.742;2023-02-12T07:14:38;19.50;;;9.20;;
55190;SDS011;41070;50.360;18.742;2023-02-12T07:17:05;15.10;;;8.00;;
55190;SDS011;41070;50.360;18.742;2023-02-12T07:19:34;13.30;;;7.00;;
55190;SDS011;41070;50.360;18.742;2023-02-12T07:22:12;12.20;;;7.40;;
55190;SDS011;41070;50.360;18.742;2023-02-12T07:24:38;10.70;;;6.00;;
55190;SDS011;41070;50.360;18.742;2023-02-12T07:27:05;10.50;;;6.20;;
55190;SDS011;41070;50.360;18.742;2023-02-12T07:29:31;11.60;;;5.50;;
55190;SDS011;41070;50.360;18.742;2023-02-12T07:34:24;10.50;;;5.60;;
55190;SDS011;41070;50.360;18.742;2023-02-12T07:36:50;11.30;;;6.90;;
55190;SDS011;41070;50.360;18.742;2023-02-12T07:39:16;10.00;;;5.70;;
55190;SDS011;41070;50.360;18.742;2023-02-12T07:41:42;16.00;;;6.20;;
55190;SDS011;41070;50.360;18.742;2023-02-12T07:44:09;17.70;;;6.20;;
55190;SDS011;41070;50.360;18.742;2023-02-12T07:46:47;11.40;;;5.50;;
55190;SDS011;41070;50.360;18.742;2023-02-12T07:49:24;15.50;;;5.90;;
55190;SDS011;41070;50.360;18.742;2023-02-12T07:51:51;8.80;;;4.30;;
55190;SDS011;41070;50.360;18.742;2023-02-12T07:54:21;7.30;;;3.80;;
55190;SDS011;41070;50.360;18.742;2023-02-12T07:56:47;10.70;;;4.70;;
55190;SDS011;41070;50.360;18.742;2023-02-12T07:59:15;8.60;;;4.30;;
55190;SDS011;41070;50.360;18.742;2023-02-12T08:01:46;6.80;;;3.00;;
55190;SDS011;41070;50.360;18.742;2023-02-12T08:04:15;6.50;;;3.90;;
55190;SDS011;41070;50.360;18.742;2023-02-12T08:06:44;6.10;;;3.20;;
55190;SDS011;41070;50.360;18.742;2023-02-12T08:09:13;5.70;;;2.30;;
55190;SDS011;41070;50.360;18.742;2023-02-12T08:11:43;8.80;;;4.70;;
55190;SDS011;41070;50.360;18.742;2023-02-12T08:14:10;10.10;;;4.40;;
55190;SDS011;41070;50.360;18.742;2023-02-12T08:16:38;8.40;;;4.40;;
55190;SDS011;41070;50.360;18.742;2023-02-12T08:19:05;9.20;;;3.90;;
55190;SDS011;41070;50.360;18.742;2023-02-12T08:21:32;4.80;;;2.80;;
55190;SDS011;41070;50.360;18.742;2023-02-12T08:23:58;6.80;;;2.40;;
55190;SDS011;41070;50.360;18.742;2023-02-12T08:26:31;4.70;;;2.70;;
55190;SDS011;41070;50.360;18.742;2023-02-12T08:29:09;8.30;;;3.70;;
55190;SDS011;41070;50.360;18.742;2023-02-12T08:31:43;7.90;;;3.30;;
55190;SDS011;41070;50.360;18.742;2023-02-12T08:34:18;8.00;;;3.40;;
55190;SDS011;41070;50.360;18.742;2023-02-12T08:36:51;19.70;;;12.70;;
55190;SDS011;41070;50.360;18.742;2023-02-12T08:39:22;10.80;;;8.00;;
55190;SDS011;41070;50.360;18.742;2023-02-12T08:41:49;5.20;;;3.30;;
55190;SDS011;41070;50.360;18.742;2023-02-12T08:44:19;4.60;;;3.00;;
55190;SDS011;41070;50.360;18.742;2023-02-12T08:46:46;4.40;;;2.50;;
55190;SDS011;41070;50.360;18.742;2023-02-12T08:49:19;6.70;;;3.10;;
55190;SDS011;41070;50.360;18.742;2023-02-12T08:51:47;11.90;;;4.20;;
55190;SDS011;41070;50.360;18.742;2023-02-12T08:54:19;4.00;;;2.20;;
55190;SDS011;41070;50.360;18.742;2023-02-12T08:56:48;6.40;;;2.40;;
55190;SDS011;41070;50.360;18.742;2023-02-12T08:59:16;3.30;;;2.60;;
55190;SDS011;41070;50.360;18.742;2023-02-12T09:01:49;9.20;;;3.90;;
55190;SDS011;41070;50.360;18.742;2023-02-12T09:04:18;5.40;;;2.90;;
55190;SDS011;41070;50.360;18.742;2023-02-12T09:06:46;5.10;;;2.50;;
55190;SDS011;41070;50.360;18.742;2023-02-12T09:09:13;6.40;;;3.40;;
55190;SDS011;41070;50.360;18.742;2023-02-12T09:11:44;4.10;;;2.60;;
55190;SDS011;41070;50.360;18.742;2023-02-12T09:14:12;5.40;;;2.80;;
55190;SDS011;41070;50.360;18.742;2023-02-12T09:16:40;8.50;;;3.10;;
55190;SDS011;41070;50.360;18.742;2023-02-12T09:19:06;3.10;;;2.40;;
55190;SDS011;41070;50.360;18.742;2023-02-12T09:21:34;4.50;;;2.20;;
55190;SDS011;41070;50.360;18.742;2023-02-12T09:24:00;6.60;;;2.90;;
55190;SDS011;41070;50.360;18.742;2023-02-12T09:26:27;2.70;;;1.60;;
55190;SDS011;41070;50.360;18.742;2023-02-12T09:28:54;5.90;;;2.80;;
55190;SDS011;41070;50.360;18.742;2023-02-12T09:33:56;7.60;;;3.60;;
55190;SDS011;41070;50.360;18.742;2023-02-12T09:36:24;7.60;;;4.00;;
55190;SDS011;41070;50.360;18.742;2023-02-12T09:38:50;9.00;;;4.00;;
55190;SDS011;41070;50.360;18.742;2023-02-12T09:46:32;6.20;;;3.20;;
55190;SDS011;41070;50.360;18.742;2023-02-12T09:49:16;7.40;;;3.50;;
55190;SDS011;41070;50.360;18.742;2023-02-12T09:51:51;5.90;;;3.20;;
55190;SDS011;41070;50.360;18.742;2023-02-12T09:54:21;5.80;;;2.90;;
55190;SDS011;41070;50.360;18.742;2023-02-12T09:56:51;8.10;;;4.10;;
55190;SDS011;41070;50.360;18.742;2023-02-12T09:59:27;10.30;;;3.50;;
55190;SDS011;41070;50.360;18.742;2023-02-12T10:01:58;7.30;;;3.70;;
55190;SDS011;41070;50.360;18.742;2023-02-12T10:04:25;4.80;;;2.50;;
55190;SDS011;41070;50.360;18.742;2023-02-12T10:06:59;6.40;;;3.50;;
55190;SDS011;41070;50.360;18.742;2023-02-12T10:14:55;8.90;;;3.40;;
55190;SDS011;41070;50.360;18.742;2023-02-12T10:17:52;7.00;;;2.40;;
55190;SDS011;41070;50.360;18.742;2023-02-12T10:26:41;7.30;;;2.80;;
55190;SDS011;41070;50.360;18.742;2023-02-12T10:29:13;4.50;;;2.60;;
55190;SDS011;41070;50.360;18.742;2023-02-12T10:31:45;12.80;;;5.40;;
55190;SDS011;41070;50.360;18.742;2023-02-12T10:34:18;9.50;;;4.40;;
55190;SDS011;41070;50.360;18.742;2023-02-12T10:36:48;5.50;;;3.40;;
55190;SDS011;41070;50.360;18.742;2023-02-12T10:39:27;8.00;;;3.50;;
55190;SDS011;41070;50.360;18.742;2023-02-12T10:42:09;7.50;;;3.20;;
55190;SDS011;41070;50.360;18.742;2023-02-12T10:44:40;5.50;;;2.20;;
55190;SDS011;41070;50.360;18.742;2023-02-12T10:47:25;7.80;;;3.60;;
55190;SDS011;41070;50.360;18.742;2023-02-12T10:49:55;8.50;;;4.50;;
55190;SDS011;41070;50.360;18.742;2023-02-12T10:52:29;6.50;;;3.00;;
55190;SDS011;41070;50.360;18.742;2023-02-12T10:55:29;8.10;;;3.20;;
55190;SDS011;41070;50.360;18.742;2023-02-12T10:57:58;4.50;;;2.60;;
55190;SDS011;41070;50.360;18.742;2023-02-12T11:05:38;6.60;;;2.90;;
55190;SDS011;41070;50.360;18.742;2023-02-12T11:08:06;7.00;;;3.80;;
55190;SDS011;41070;50.360;18.742;2023-02-12T11:10:45;8.20;;;3.40;;
55190;SDS011;41070;50.360;18.742;2023-02-12T11:13:24;6.00;;;3.30;;
55190;SDS011;41070;50.360;18.742;2023-02-12T11:15:52;6.30;;;2.80;;
55190;SDS011;41070;50.360;18.742;2023-02-12T11:18:30;5.80;;;3.00;;
55190;SDS011;41070;50.360;18.742;2023-02-12T11:20:59;5.70;;;3.50;;
55190;SDS011;41070;50.360;18.742;2023-02-12T11:23:42;7.40;;;3.40;;
55190;SDS011;41070;50.360;18.742;2023-02-12T11:28:52;10.60;;;5.30;;
55190;SDS011;41070;50.360;18.742;2023-02-12T11:31:24;13.60;;;5.70;;
55190;SDS011;41070;50.360;18.742;2023-02-12T11:36:53;8.00;;;4.10;;
55190;SDS011;41070;50.360;18.742;2023-02-12T11:39:23;68.20;;;21.50;;
55190;SDS011;41070;50.360;18.742;2023-02-12T11:41:55;60.40;;;16.60;;
55190;SDS011;41070;50.360;18.742;2023-02-12T11:44:53;43.60;;;14.20;;
55190;SDS011;41070;50.360;18.742;2023-02-12T11:47:24;26.00;;;10.00;;
55190;SDS011;41070;50.360;18.742;2023-02-12T11:52:44;16.10;;;5.20;;
55190;SDS011;41070;50.360;18.742;2023-02-12T11:57:52;16.70;;;5.20;;
55190;SDS011;41070;50.360;18.742;2023-02-12T12:08:54;22.80;;;8.70;;
55190;SDS011;41070;50.360;18.742;2023-02-12T12:11:27;22.00;;;9.10;;
55190;SDS011;41070;50.360;18.742;2023-02-12T12:16:43;12.70;;;5.90;;
55190;SDS011;41070;50.360;18.742;2023-02-12T12:34:20;8.40;;;4.50;;
55190;SDS011;41070;50.360;18.742;2023-02-12T13:00:15;9.10;;;4.90;;
55190;SDS011;41070;50.360;18.742;2023-02-12T13:09:19;8.20;;;4.90;;
55190;SDS011;41070;50.360;18.742;2023-02-12T13:15:04;9.70;;;5.20;;
55190;SDS011;41070;50.360;18.742;2023-02-12T13:17:46;11.00;;;5.70;;
55190;SDS011;41070;50.360;18.742;2023-02-12T13:28:37;12.90;;;6.40;;
55190;SDS011;41070;50.360;18.742;2023-02-12T13:31:20;14.80;;;6.60;;
55190;SDS011;41070;50.360;18.742;2023-02-12T13:33:51;11.60;;;6.60;;
55190;SDS011;41070;50.360;18.742;2023-02-12T13:36:21;11.60;;;6.90;;
55190;SDS011;41070;50.360;18.742;2023-02-12T13:41:42;11.20;;;6.20;;
55190;SDS011;41070;50.360;18.742;2023-02-12T13:47:45;13.10;;;7.40;;
55190;SDS011;41070;50.360;18.742;2023-02-12T13:50:20;11.70;;;6.90;;
55190;SDS011;41070;50.360;18.742;2023-02-12T13:55:33;12.20;;;7.90;;
55190;SDS011;41070;50.360;18.742;2023-02-12T14:03:32;16.80;;;7.00;;
55190;SDS011;41070;50.360;18.742;2023-02-12T14:06:19;26.90;;;14.90;;
55190;SDS011;41070;50.360;18.742;2023-02-12T14:08:52;13.70;;;7.10;;
55190;SDS011;41070;50.360;18.742;2023-02-12T14:11:39;12.40;;;7.20;;
55190;SDS011;41070;50.360;18.742;2023-02-12T14:14:13;14.00;;;7.60;;
55190;SDS011;41070;50.360;18.742;2023-02-12T14:16:52;11.40;;;6.20;;
55190;SDS011;41070;50.360;18.742;2023-02-12T14:19:38;11.80;;;6.80;;
55190;SDS011;41070;50.360;18.742;2023-02-12T14:28:26;15.20;;;8.40;;
55190;SDS011;41070;50.360;18.742;2023-02-12T14:31:33;13.50;;;7.90;;
55190;SDS011;41070;50.360;18.742;2023-02-12T14:46:50;19.10;;;9.20;;
55190;SDS011;41070;50.360;18.742;2023-02-12T14:49:51;19.40;;;9.10;;
55190;SDS011;41070;50.360;18.742;2023-02-12T14:58:49;210.50;;;53.40;;
55190;SDS011;41070;50.360;18.742;2023-02-12T15:01:34;77.80;;;23.70;;
55190;SDS011;41070;50.360;18.742;2023-02-12T15:05:36;69.70;;;25.20;;
55190;SDS011;41070;50.360;18.742;2023-02-12T15:08:10;133.90;;;35.60;;
55190;SDS011;41070;50.360;18.742;2023-02-12T15:16:55;88.30;;;33.80;;
55190;SDS011;41070;50.360;18.742;2023-02-12T15:22:40;94.90;;;30.50;;
55190;SDS011;41070;50.360;18.742;2023-02-12T15:25:27;117.70;;;36.90;;
55190;SDS011;41070;50.360;18.742;2023-02-12T15:27:59;239.00;;;61.50;;
55190;SDS011;41070;50.360;18.742;2023-02-12T15:30:31;63.90;;;25.30;;
55190;SDS011;41070;50.360;18.742;2023-02-12T15:33:02;37.30;;;15.90;;
55190;SDS011;41070;50.360;18.742;2023-02-12T15:35:31;22.60;;;10.30;;
55190;SDS011;41070;50.360;18.742;2023-02-12T15:37:59;15.80;;;8.00;;
55190;SDS011;41070;50.360;18.742;2023-02-12T15:40:30;18.70;;;10.50;;
55190;SDS011;41070;50.360;18.742;2023-02-12T15:42:57;18.20;;;9.80;;
55190;SDS011;41070;50.360;18.742;2023-02-12T15:45:26;18.40;;;9.30;;
55190;SDS011;41070;50.360;18.742;2023-02-12T15:48:03;19.70;;;9.30;;
55190;SDS011;41070;50.360;18.742;2023-02-12T15:50:51;13.70;;;7.50;;
55190;SDS011;41070;50.360;18.742;2023-02-12T15:53:19;15.80;;;7.00;;
55190;SDS011;41070;50.360;18.742;2023-02-12T15:55:49;12.60;;;7.30;;
55190;SDS011;41070;50.360;18.742;2023-02-12T15:58:26;14.70;;;8.00;;
55190;SDS011;41070;50.360;18.742;2023-02-12T16:01:03;12.70;;;7.60;;
55190;SDS011;41070;50.360;18.742;2023-02-12T16:03:33;16.50;;;7.70;;
55190;SDS011;41070;50.360;18.742;2023-02-12T16:06:03;11.50;;;6.80;;
55190;SDS011;41070;50.360;18.742;2023-02-12T16:08:36;18.00;;;7.00;;
55190;SDS011;41070;50.360;18.742;2023-02-12T16:11:04;12.10;;;7.10;;
55190;SDS011;41070;50.360;18.742;2023-02-12T16:13:39;14.60;;;8.00;;
55190;SDS011;41070;50.360;18.742;2023-02-12T16:21:16;14.60;;;7.20;;
55190;SDS011;41070;50.360;18.742;2023-02-12T16:23:47;18.50;;;9.10;;
55190;SDS011;41070;50.360;18.742;2023-02-12T16:26:16;22.40;;;9.50;;
55190;SDS011;41070;50.360;18.742;2023-02-12T16:28:47;30.10;;;12.60;;
55190;SDS011;41070;50.360;18.742;2023-02-12T16:31:17;21.60;;;10.30;;
55190;SDS011;41070;50.360;18.742;2023-02-12T16:33:50;25.30;;;11.80;;
55190;SDS011;41070;50.360;18.742;2023-02-12T16:38:46;28.00;;;12.50;;
55190;SDS011;41070;50.360;18.742;2023-02-12T16:43:44;36.60;;;16.00;;
55190;SDS011;41070;50.360;18.742;2023-02-12T16:46:11;32.00;;;14.90;;
55190;SDS011;41070;50.360;18.742;2023-02-12T16:48:43;41.40;;;18.50;;
55190;SDS011;41070;50.360;18.742;2023-02-12T16:51:21;42.90;;;19.60;;
55190;SDS011;41070;50.360;18.742;2023-02-12T16:56:19;53.10;;;21.70;;
55190;SDS011;41070;50.360;18.742;2023-02-12T16:58:48;43.40;;;19.50;;
55190;SDS011;41070;50.360;18.742;2023-02-12T17:01:18;46.80;;;19.70;;
55190;SDS011;41070;50.360;18.742;2023-02-12T17:03:52;41.50;;;16.80;;
55190;SDS011;41070;50.360;18.742;2023-02-12T17:06:20;42.50;;;18.50;;
55190;SDS011;41070;50.360;18.742;2023-02-12T17:08:48;35.10;;;17.00;;
55190;SDS011;41070;50.360;18.742;2023-02-12T17:11:16;37.30;;;16.40;;
55190;SDS011;41070;50.360;18.742;2023-02-12T17:13:46;53.30;;;23.90;;
55190;SDS011;41070;50.360;18.742;2023-02-12T17:16:14;55.30;;;23.90;;
55190;SDS011;41070;50.360;18.742;2023-02-12T17:18:41;49.90;;;24.80;;
55190;SDS011;41070;50.360;18.742;2023-02-12T17:23:50;52.30;;;25.00;;
55190;SDS011;41070;50.360;18.742;2023-02-12T17:26:19;68.50;;;31.10;;
55190;SDS011;41070;50.360;18.742;2023-02-12T17:28:46;59.20;;;25.20;;
55190;SDS011;41070;50.360;18.742;2023-02-12T17:31:12;42.10;;;20.00;;
55190;SDS011;41070;50.360;18.742;2023-02-12T17:33:38;38.60;;;18.80;;
55190;SDS011;41070;50.360;18.742;2023-02-12T17:38:31;40.50;;;19.70;;
55190;SDS011;41070;50.360;18.742;2023-02-12T17:40:57;42.80;;;20.60;;
55190;SDS011;41070;50.360;18.742;2023-02-12T17:43:24;47.20;;;20.80;;
55190;SDS011;41070;50.360;18.742;2023-02-12T17:45:50;58.90;;;27.50;;
55190;SDS011;41070;50.360;18.742;2023-02-12T17:48:17;61.70;;;30.10;;
55190;SDS011;41070;50.360;18.742;2023-02-12T17:50:51;71.80;;;33.90;;
55190;SDS011;41070;50.360;18.742;2023-02-12T17:53:19;67.90;;;30.30;;
55190;SDS011;41070;50.360;18.742;2023-02-12T17:55:45;64.90;;;29.10;;
55190;SDS011;41070;50.360;18.742;2023-02-12T17:58:11;68.00;;;30.90;;
55190;SDS011;41070;50.360;18.742;2023-02-12T18:00:39;57.50;;;27.40;;
55190;SDS011;41070;50.360;18.742;2023-02-12T18:03:05;61.80;;;28.50;;
55190;SDS011;41070;50.360;18.742;2023-02-12T18:05:32;51.80;;;24.10;;
55190;SDS011;41070;50.360;18.742;2023-02-12T18:07:58;54.80;;;27.30;;
55190;SDS011;41070;50.360;18.742;2023-02-12T18:10:26;45.00;;;22.50;;
55190;SDS011;41070;50.360;18.742;2023-02-12T18:12:53;58.30;;;27.20;;
55190;SDS011;41070;50.360;18.742;2023-02-12T18:18:11;49.30;;;26.40;;
55190;SDS011;41070;50.360;18.742;2023-02-12T18:20:38;60.10;;;27.50;;
55190;SDS011;41070;50.360;18.742;2023-02-12T18:23:05;56.80;;;26.30;;
55190;SDS011;41070;50.360;18.742;2023-02-12T18:25:33;50.40;;;24.90;;
55190;SDS011;41070;50.360;18.742;2023-02-12T18:28:00;51.90;;;25.20;;
55190;SDS011;41070;50.360;18.742;2023-02-12T18:30:27;50.30;;;25.70;;
55190;SDS011;41070;50.360;18.742;2023-02-12T18:32:53;45.10;;;23.00;;
55190;SDS011;41070;50.360;18.742;2023-02-12T18:35:20;49.10;;;22.80;;
55190;SDS011;41070;50.360;18.742;2023-02-12T18:37:46;50.80;;;24.50;;
55190;SDS011;41070;50.360;18.742;2023-02-12T18:40:12;46.90;;;22.80;;
55190;SDS011;41070;50.360;18.742;2023-02-12T18:42:39;45.10;;;21.10;;
55190;SDS011;41070;50.360;18.742;2023-02-12T18:45:09;36.50;;;18.00;;
55190;SDS011;41070;50.360;18.742;2023-02-12T18:50:35;60.70;;;27.60;;
55190;SDS011;41070;50.360;18.742;2023-02-12T18:53:01;67.10;;;29.70;;
55190;SDS011;41070;50.360;18.742;2023-02-12T18:55:27;67.00;;;29.70;;
55190;SDS011;41070;50.360;18.742;2023-02-12T19:01:49;89.40;;;32.90;;
55190;SDS011;41070;50.360;18.742;2023-02-12T19:05:24;55.10;;;25.80;;
55190;SDS011;41070;50.360;18.742;2023-02-12T19:10:17;46.80;;;25.60;;
55190;SDS011;41070;50.360;18.742;2023-02-12T19:12:43;57.70;;;29.50;;
55190;SDS011;41070;50.360;18.742;2023-02-12T19:15:10;54.30;;;28.20;;
55190;SDS011;41070;50.360;18.742;2023-02-12T19:17:36;44.50;;;23.90;;
55190;SDS011;41070;50.360;18.742;2023-02-12T19:20:03;48.80;;;24.20;;
55190;SDS011;41070;50.360;18.742;2023-02-12T19:22:35;40.20;;;20.50;;